Time;durP1;ratioP1;P1;durP2;ratioP2;P2;SDS_P1;SDS_P2;PMS_P1;PMS_P2;Temp;Humidity;BMP_temperature;BMP_pressure;BME280_temperature;BME280_humidity;BME280_pressure;Samples;Min_cycle;Max_cycle;Signal;HPM_P1;HPM_P2
2023/10/11 00:02:19;;;;;;;0.52;0.52;;;;;;;;;;5059222;28;20021;-81
2023/10/11 00:04:48;;;;;;;0.50;0.50;;;;;;;;;;5059323;28;20056;-81
2023/10/11 00:07:18;;;;;;;0.73;0.73;;;;;;;;;;5058835;28;20028;-80
2023/10/11 00:09:44;;;;;;;0.60;0.60;;;;;;;;;;5058808;28;20108;-79
2023/10/11 00:12:11;;;;;;;0.60;0.60;;;;;;;;;;5058339;28;20074;-80
2023/10/11 00:14:42;;;;;;;0.60;0.60;;;;;;;;;;5058862;28;20036;-79
2023/10/11 00:17:09;;;;;;;0.50;0.50;;;;;;;;;;5058097;28;20531;-81
2023/10/11 00:19:39;;;;;;;0.50;0.50;;;;;;;;;;5058551;28;20025;-81
2023/10/11 00:22:06;;;;;;;1.23;1.05;;;;;;;;;;5057762;28;20021;-81
2023/10/11 00:24:32;;;;;;;0.50;0.50;;;;;;;;;;5057686;28;20021;-79
2023/10/11 00:26:59;;;;;;;0.52;0.52;;;;;;;;;;5059074;28;20116;-80
2023/10/11 00:29:26;;;;;;;0.52;0.52;;;;;;;;;;5059957;28;20090;-81
2023/10/11 00:31:53;;;;;;;0.50;0.50;;;;;;;;;;5060992;28;20542;-81
2023/10/11 00:34:19;;;;;;;0.50;0.50;;;;;;;;;;5061462;28;20029;-79
2023/10/11 00:36:49;;;;;;;0.60;0.60;;;;;;;;;;5058755;28;20501;-81
2023/10/11 00:39:18;;;;;;;0.50;0.50;;;;;;;;;;5058823;28;20036;-81
2023/10/11 00:41:48;;;;;;;0.50;0.50;;;;;;;;;;5063016;28;20190;-79
2023/10/11 00:44:20;;;;;;;0.50;0.50;;;;;;;;;;5064639;28;20032;-79
2023/10/11 00:47:00;;;;;;;0.50;0.50;;;;;;;;;;5065646;28;20025;-80
2023/10/11 00:49:39;;;;;;;0.60;0.60;;;;;;;;;;5065881;28;20345;-81
2023/10/11 00:52:09;;;;;;;0.50;0.50;;;;;;;;;;5065177;28;20086;-79
2023/10/11 00:54:37;;;;;;;0.60;0.60;;;;;;;;;;5065742;28;20025;-82
2023/10/11 00:57:04;;;;;;;0.60;0.60;;;;;;;;;;5065866;28;20021;-81
2023/10/11 00:59:30;;;;;;;0.60;0.60;;;;;;;;;;5066212;28;20461;-81
2023/10/11 01:01:58;;;;;;;0.60;0.60;;;;;;;;;;5066363;28;20028;-82
2023/10/11 01:04:33;;;;;;;0.50;0.50;;;;;;;;;;5066732;28;20032;-82
2023/10/11 01:06:59;;;;;;;0.50;0.50;;;;;;;;;;5065088;28;20044;-80
2023/10/11 01:09:28;;;;;;;0.50;0.50;;;;;;;;;;5068152;28;20016;-82
2023/10/11 01:11:55;;;;;;;0.50;0.50;;;;;;;;;;5067697;28;20054;-79
2023/10/11 01:14:24;;;;;;;0.60;0.60;;;;;;;;;;5068537;28;20025;-82
2023/10/11 01:16:51;;;;;;;0.50;0.50;;;;;;;;;;5068545;28;20467;-83
2023/10/11 01:19:18;;;;;;;0.60;0.60;;;;;;;;;;5071641;28;20035;-84
2023/10/11 01:21:53;;;;;;;0.60;0.60;;;;;;;;;;5067544;28;20029;-80
2023/10/11 01:24:20;;;;;;;0.60;0.60;;;;;;;;;;5066587;28;20060;-81
2023/10/11 01:26:46;;;;;;;0.60;0.60;;;;;;;;;;5066784;28;20020;-79
2023/10/11 01:29:12;;;;;;;0.60;0.60;;;;;;;;;;5066622;28;20103;-83
2023/10/11 01:31:39;;;;;;;0.50;0.50;;;;;;;;;;5066558;28;20361;-83
2023/10/11 01:34:05;;;;;;;0.50;0.50;;;;;;;;;;5066716;28;20115;-83
2023/10/11 01:36:31;;;;;;;0.60;0.60;;;;;;;;;;5068423;28;20016;-83
2023/10/11 01:39:08;;;;;;;0.50;0.50;;;;;;;;;;5068317;28;20028;-83
2023/10/11 01:41:36;;;;;;;0.60;0.60;;;;;;;;;;5066907;28;20028;-81
2023/10/11 01:44:02;;;;;;;0.60;0.60;;;;;;;;;;5066324;28;20360;-80
2023/10/11 01:46:32;;;;;;;0.50;0.50;;;;;;;;;;5066293;28;20029;-80
2023/10/11 01:48:58;;;;;;;0.70;0.70;;;;;;;;;;5065701;28;20025;-81
2023/10/11 01:51:28;;;;;;;0.60;0.60;;;;;;;;;;5069773;28;20025;-81
2023/10/11 01:53:54;;;;;;;0.60;0.60;;;;;;;;;;5070652;28;20023;-81
2023/10/11 01:56:24;;;;;;;0.50;0.50;;;;;;;;;;5070988;28;20119;-81
2023/10/11 01:58:56;;;;;;;0.60;0.60;;;;;;;;;;5071206;28;20021;-80
2023/10/11 02:01:30;;;;;;;0.50;0.50;;;;;;;;;;5071257;28;20035;-80
2023/10/11 02:04:03;;;;;;;0.60;0.60;;;;;;;;;;5072025;28;20499;-81
2023/10/11 02:06:32;;;;;;;0.63;0.60;;;;;;;;;;5071453;28;20032;-81
2023/10/11 02:08:58;;;;;;;0.60;0.60;;;;;;;;;;5073690;28;20036;-82
2023/10/11 02:11:29;;;;;;;0.60;0.60;;;;;;;;;;5074757;28;20058;-81
2023/10/11 02:13:57;;;;;;;0.50;0.50;;;;;;;;;;5070178;28;20089;-80
2023/10/11 02:16:23;;;;;;;0.50;0.50;;;;;;;;;;5069911;28;20031;-82
2023/10/11 02:18:58;;;;;;;0.77;0.68;;;;;;;;;;5069263;28;20024;-81
2023/10/11 02:21:24;;;;;;;0.70;0.60;;;;;;;;;;5069509;28;20052;-81
2023/10/11 02:23:51;;;;;;;0.60;0.60;;;;;;;;;;5070357;28;20573;-82
2023/10/11 02:26:17;;;;;;;0.50;0.50;;;;;;;;;;5072155;28;20040;-81
2023/10/11 02:28:44;;;;;;;0.60;0.60;;;;;;;;;;5072685;28;20025;-82
2023/10/11 02:31:13;;;;;;;0.60;0.60;;;;;;;;;;5067587;28;20024;-79
2023/10/11 02:33:40;;;;;;;0.50;0.50;;;;;;;;;;5068196;28;20025;-80
2023/10/11 02:36:17;;;;;;;0.60;0.60;;;;;;;;;;5068564;28;20025;-79
2023/10/11 02:38:50;;;;;;;0.60;0.60;;;;;;;;;;5069164;28;20047;-81
2023/10/11 02:41:24;;;;;;;0.60;0.60;;;;;;;;;;5068711;28;20032;-81
2023/10/11 02:43:51;;;;;;;0.60;0.60;;;;;;;;;;5069035;28;20136;-81
2023/10/11 02:46:17;;;;;;;0.50;0.50;;;;;;;;;;5067702;28;20112;-80
2023/10/11 02:48:46;;;;;;;0.60;0.60;;;;;;;;;;5068420;28;20537;-82
2023/10/11 02:51:15;;;;;;;0.60;0.60;;;;;;;;;;5067717;28;20088;-82
2023/10/11 02:53:43;;;;;;;0.70;0.70;;;;;;;;;;5068541;28;20115;-81
2023/10/11 02:56:10;;;;;;;0.60;0.60;;;;;;;;;;5086058;28;20029;-81
2023/10/11 02:58:39;;;;;;;0.60;0.60;;;;;;;;;;5068716;28;20111;-84
2023/10/11 03:01:15;;;;;;;0.60;0.60;;;;;;;;;;5065409;28;20480;-83
2023/10/11 03:03:42;;;;;;;0.60;0.60;;;;;;;;;;5068683;28;20024;-82
2023/10/11 03:06:08;;;;;;;0.70;0.70;;;;;;;;;;5069135;28;20027;-81
2023/10/11 03:08:35;;;;;;;0.50;0.50;;;;;;;;;;5068847;28;20476;-82
2023/10/11 03:11:04;;;;;;;0.50;0.50;;;;;;;;;;5069431;28;20024;-79
2023/10/11 03:13:31;;;;;;;0.60;0.60;;;;;;;;;;5068737;28;20050;-79
2023/10/11 03:15:58;;;;;;;0.60;0.60;;;;;;;;;;5069592;28;20032;-81
2023/10/11 03:18:31;;;;;;;0.60;0.60;;;;;;;;;;5069494;28;20025;-81
2023/10/11 03:21:19;;;;;;;0.60;0.60;;;;;;;;;;5069738;28;20474;-82
2023/10/11 03:23:47;;;;;;;0.60;0.60;;;;;;;;;;5086948;28;20036;-82
2023/10/11 03:26:19;;;;;;;0.60;0.60;;;;;;;;;;5070013;28;20376;-80
2023/10/11 03:28:56;;;;;;;0.60;0.60;;;;;;;;;;5071000;28;20088;-82
2023/10/11 03:31:23;;;;;;;0.50;0.50;;;;;;;;;;5070322;28;20483;-81
2023/10/11 03:33:49;;;;;;;0.60;0.60;;;;;;;;;;5071468;28;20119;-82
2023/10/11 03:36:19;;;;;;;0.60;0.60;;;;;;;;;;5072246;28;20070;-82
2023/10/11 03:38:51;;;;;;;0.50;0.50;;;;;;;;;;5068706;28;20028;-80
2023/10/11 03:41:24;;;;;;;0.45;0.45;;;;;;;;;;5068921;28;20027;-83
2023/10/11 03:43:54;;;;;;;0.50;0.50;;;;;;;;;;5067703;28;20044;-80
2023/10/11 03:46:24;;;;;;;0.60;0.60;;;;;;;;;;5067666;28;20029;-81
2023/10/11 03:49:01;;;;;;;0.60;0.60;;;;;;;;;;5065272;28;20024;-81
2023/10/11 03:51:28;;;;;;;0.60;0.60;;;;;;;;;;5066979;28;20035;-81
2023/10/11 03:53:54;;;;;;;0.55;0.55;;;;;;;;;;5068281;28;20082;-80
2023/10/11 03:56:20;;;;;;;0.70;0.70;;;;;;;;;;5068779;28;20026;-82
2023/10/11 03:58:50;;;;;;;0.60;0.60;;;;;;;;;;5069349;28;20019;-83
2023/10/11 04:03:43;;;;;;;0.60;0.60;;;;;;;;;;5086269;28;20028;-79
2023/10/11 04:06:19;;;;;;;0.60;0.60;;;;;;;;;;5070309;28;20025;-80
2023/10/11 04:08:56;;;;;;;0.63;0.60;;;;;;;;;;5088844;28;20084;-81
2023/10/11 04:11:37;;;;;;;0.50;0.50;;;;;;;;;;5069993;28;20020;-81
2023/10/11 04:14:12;;;;;;;0.50;0.50;;;;;;;;;;5068773;28;20051;-83
2023/10/11 04:16:38;;;;;;;0.60;0.60;;;;;;;;;;5066853;28;20020;-80
2023/10/11 04:19:08;;;;;;;0.60;0.60;;;;;;;;;;5065186;28;20464;-79
2023/10/11 04:21:53;;;;;;;0.60;0.60;;;;;;;;;;5065761;28;20039;-80
2023/10/11 04:24:20;;;;;;;0.50;0.50;;;;;;;;;;5067441;28;20051;-82
2023/10/11 04:26:53;;;;;;;0.57;0.57;;;;;;;;;;5066826;28;20032;-81
2023/10/11 04:29:23;;;;;;;0.70;0.70;;;;;;;;;;5066726;28;20021;-79
2023/10/11 04:32:09;;;;;;;0.60;0.60;;;;;;;;;;5065180;28;20024;-79
2023/10/11 04:34:38;;;;;;;0.60;0.60;;;;;;;;;;5084834;28;20043;-81
2023/10/11 04:37:16;;;;;;;0.70;0.70;;;;;;;;;;5067489;28;20037;-82
2023/10/11 04:39:56;;;;;;;0.60;0.60;;;;;;;;;;5068862;28;20021;-81
2023/10/11 04:42:27;;;;;;;0.60;0.60;;;;;;;;;;5086576;28;20055;-82
2023/10/11 04:44:57;;;;;;;0.60;0.60;;;;;;;;;;5070494;28;20021;-83
2023/10/11 04:47:27;;;;;;;0.80;0.80;;;;;;;;;;5068590;28;20029;-80
2023/10/11 04:49:54;;;;;;;0.65;0.60;;;;;;;;;;5063595;28;20020;-82
2023/10/11 04:52:23;;;;;;;0.60;0.60;;;;;;;;;;5064394;28;20039;-82
2023/10/11 04:54:55;;;;;;;0.60;0.60;;;;;;;;;;5065896;28;20028;-80
2023/10/11 04:58:12;;;;;;;0.50;0.50;;;;;;;;;;5067166;28;20066;-81
2023/10/11 05:00:18;;;;;;;0.60;0.60;;;;;;;;;;5073536;28;20050;-79
2023/10/11 05:02:51;;;;;;;0.60;0.60;;;;;;;;;;5066476;28;20025;-80
2023/10/11 05:05:19;;;;;;;0.60;0.60;;;;;;;;;;5066294;28;20118;-80
2023/10/11 05:07:46;;;;;;;0.50;0.50;;;;;;;;;;5062215;28;20025;-81
2023/10/11 05:12:57;;;;;;;0.50;0.50;;;;;;;;;;5084960;28;20093;-80
2023/10/11 05:15:29;;;;;;;0.60;0.60;;;;;;;;;;5068743;28;20028;-81
2023/10/11 05:17:59;;;;;;;0.50;0.50;;;;;;;;;;5066918;28;20025;-78
2023/10/11 05:20:44;;;;;;;0.50;0.50;;;;;;;;;;5067727;28;20024;-80
2023/10/11 05:23:15;;;;;;;0.50;0.50;;;;;;;;;;5070706;28;20028;-79
2023/10/11 05:26:00;;;;;;;0.60;0.60;;;;;;;;;;5070533;28;20486;-80
2023/10/11 05:28:27;;;;;;;0.60;0.60;;;;;;;;;;5068826;28;20036;-79
2023/10/11 05:31:44;;;;;;;0.60;0.60;;;;;;;;;;5069822;28;20021;-80
2023/10/11 05:50:54;;;;;;;0.50;0.50;;;;;;;;;;5088415;28;20082;-82
2023/10/11 05:53:20;;;;;;;0.50;0.50;;;;;;;;;;5067695;28;20051;-82
2023/10/11 05:55:47;;;;;;;0.60;0.60;;;;;;;;;;5066080;28;20028;-80
2023/10/11 05:58:13;;;;;;;0.50;0.50;;;;;;;;;;5066773;28;20024;-80
2023/10/11 06:00:39;;;;;;;0.60;0.60;;;;;;;;;;5064609;28;20031;-80
2023/10/11 06:03:06;;;;;;;0.60;0.60;;;;;;;;;;5067710;28;20027;-84
2023/10/11 06:05:39;;;;;;;0.60;0.60;;;;;;;;;;5066124;28;20025;-82
2023/10/11 06:08:07;;;;;;;0.60;0.60;;;;;;;;;;5067291;28;20025;-80
2023/10/11 06:10:42;;;;;;;0.60;0.60;;;;;;;;;;5067617;28;20051;-82
2023/10/11 06:13:13;;;;;;;0.50;0.50;;;;;;;;;;5066524;28;20059;-81
2023/10/11 06:15:43;;;;;;;0.60;0.60;;;;;;;;;;5067734;28;20028;-80
2023/10/11 06:18:38;;;;;;;0.50;0.50;;;;;;;;;;5067522;28;20047;-80
2023/10/11 06:21:05;;;;;;;0.55;0.55;;;;;;;;;;5084491;28;20028;-81
2023/10/11 06:23:31;;;;;;;0.60;0.60;;;;;;;;;;5066930;28;20025;-82
2023/10/11 06:25:59;;;;;;;0.57;0.57;;;;;;;;;;5066887;28;20053;-81
2023/10/11 06:28:31;;;;;;;0.60;0.60;;;;;;;;;;5067356;28;20060;-83
2023/10/11 06:31:01;;;;;;;0.55;0.55;;;;;;;;;;5067167;28;20025;-80
2023/10/11 06:33:27;;;;;;;0.60;0.60;;;;;;;;;;5065922;28;20488;-80
2023/10/11 06:35:54;;;;;;;0.50;0.50;;;;;;;;;;5066134;28;20559;-81
2023/10/11 06:38:23;;;;;;;0.57;0.57;;;;;;;;;;5066319;28;20025;-82
2023/10/11 06:40:54;;;;;;;0.63;0.63;;;;;;;;;;5066327;28;20016;-80
2023/10/11 06:43:21;;;;;;;0.57;0.57;;;;;;;;;;5067364;28;20531;-81
2023/10/11 06:45:49;;;;;;;0.50;0.50;;;;;;;;;;5067348;28;20032;-79
2023/10/11 06:48:16;;;;;;;0.45;0.45;;;;;;;;;;5066884;28;20031;-81
2023/10/11 06:50:42;;;;;;;0.60;0.60;;;;;;;;;;5066494;28;20025;-80
2023/10/11 06:53:09;;;;;;;0.60;0.60;;;;;;;;;;5066739;28;20407;-80
2023/10/11 06:55:39;;;;;;;0.60;0.60;;;;;;;;;;5064367;28;20025;-81
2023/10/11 06:58:09;;;;;;;0.50;0.50;;;;;;;;;;5066946;28;20030;-81
2023/10/11 07:00:45;;;;;;;0.60;0.60;;;;;;;;;;5064924;28;20012;-83
2023/10/11 07:03:26;;;;;;;0.60;0.60;;;;;;;;;;5065578;28;20017;-82
2023/10/11 07:05:59;;;;;;;0.50;0.50;;;;;;;;;;5084349;28;20383;-80
2023/10/11 07:08:31;;;;;;;0.60;0.60;;;;;;;;;;5064597;28;20082;-83
2023/10/11 07:11:16;;;;;;;0.50;0.50;;;;;;;;;;5063257;28;20040;-83
2023/10/11 07:13:57;;;;;;;0.50;0.50;;;;;;;;;;5066102;28;20086;-79
2023/10/11 07:16:27;;;;;;;0.60;0.60;;;;;;;;;;5065275;28;20046;-80
2023/10/11 07:18:57;;;;;;;0.60;0.60;;;;;;;;;;5068039;28;20031;-81
2023/10/11 07:21:27;;;;;;;0.60;0.60;;;;;;;;;;5069828;28;20024;-84
2023/10/11 07:26:24;;;;;;;0.70;0.70;;;;;;;;;;5092495;28;20054;-79
2023/10/11 07:28:51;;;;;;;0.60;0.60;;;;;;;;;;5084354;28;20460;-81
2023/10/11 07:31:21;;;;;;;0.50;0.50;;;;;;;;;;5083527;28;20490;-80
2023/10/11 07:33:50;;;;;;;0.50;0.50;;;;;;;;;;5083490;28;20025;-81
2023/10/11 07:36:18;;;;;;;0.60;0.60;;;;;;;;;;5083703;28;20032;-79
2023/10/11 07:38:46;;;;;;;0.52;0.52;;;;;;;;;;5084356;28;20058;-79
2023/10/11 07:41:18;;;;;;;0.50;0.50;;;;;;;;;;5085879;28;20464;-82
2023/10/11 07:43:45;;;;;;;0.47;0.47;;;;;;;;;;5083662;28;20075;-81
2023/10/11 07:46:11;;;;;;;0.50;0.50;;;;;;;;;;5085053;28;20024;-81
2023/10/11 07:48:39;;;;;;;0.50;0.50;;;;;;;;;;5086163;28;20020;-82
2023/10/11 07:51:12;;;;;;;0.50;0.50;;;;;;;;;;5086010;28;20053;-80
2023/10/11 07:53:43;;;;;;;0.50;0.50;;;;;;;;;;5085874;28;20065;-81
2023/10/11 07:56:09;;;;;;;0.50;0.50;;;;;;;;;;5086053;28;20035;-79
2023/10/11 07:58:36;;;;;;;0.50;0.50;;;;;;;;;;5083900;28;20069;-82
2023/10/11 08:01:05;;;;;;;0.55;0.55;;;;;;;;;;5086004;28;20020;-82
2023/10/11 08:03:37;;;;;;;0.70;0.70;;;;;;;;;;5084525;28;20016;-81
2023/10/11 08:06:08;;;;;;;0.50;0.50;;;;;;;;;;5088904;28;20028;-81
2023/10/11 08:08:37;;;;;;;0.40;0.40;;;;;;;;;;5087284;28;20392;-79
2023/10/11 08:11:06;;;;;;;0.50;0.50;;;;;;;;;;5081071;28;20028;-81
2023/10/11 08:13:34;;;;;;;0.57;0.57;;;;;;;;;;5083244;28;20024;-82
2023/10/11 08:16:05;;;;;;;0.43;0.43;;;;;;;;;;5083867;28;20024;-84
2023/10/11 08:18:32;;;;;;;0.50;0.50;;;;;;;;;;5081351;28;20427;-83
2023/10/11 08:20:59;;;;;;;0.50;0.50;;;;;;;;;;5083233;28;20544;-85
2023/10/11 08:23:31;;;;;;;0.45;0.45;;;;;;;;;;5082716;28;20143;-81
2023/10/11 08:25:58;;;;;;;0.52;0.52;;;;;;;;;;5081997;28;20020;-83
2023/10/11 08:28:34;;;;;;;0.60;0.60;;;;;;;;;;5082430;28;20028;-81
2023/10/11 08:31:00;;;;;;;0.50;0.50;;;;;;;;;;5082669;28;20088;-82
2023/10/11 08:33:31;;;;;;;0.60;0.60;;;;;;;;;;5082879;28;20016;-86
2023/10/11 08:35:58;;;;;;;0.60;0.60;;;;;;;;;;5079622;28;20039;-82
2023/10/11 08:38:25;;;;;;;0.50;0.50;;;;;;;;;;5065604;28;20483;-83
2023/10/11 08:40:58;;;;;;;0.50;0.50;;;;;;;;;;5067052;28;20028;-82
2023/10/11 08:43:25;;;;;;;0.50;0.50;;;;;;;;;;5065099;28;20072;-82
2023/10/11 08:46:05;;;;;;;0.50;0.50;;;;;;;;;;5089167;28;20036;-83
2023/10/11 08:48:38;;;;;;;0.50;0.50;;;;;;;;;;5085764;28;20016;-83
2023/10/11 08:51:11;;;;;;;0.50;0.50;;;;;;;;;;5087883;28;20021;-83
2023/10/11 08:54:00;;;;;;;0.60;0.60;;;;;;;;;;5085943;28;20028;-86
2023/10/11 08:56:26;;;;;;;0.55;0.55;;;;;;;;;;5091612;28;20032;-85
2023/10/11 08:58:53;;;;;;;0.50;0.50;;;;;;;;;;5084641;28;20027;-85
2023/10/11 09:01:24;;;;;;;0.60;0.60;;;;;;;;;;5084015;28;20028;-85
2023/10/11 09:04:05;;;;;;;0.50;0.50;;;;;;;;;;5097834;28;20077;-82
2023/10/11 09:06:33;;;;;;;0.55;0.55;;;;;;;;;;5080485;28;20024;-82
2023/10/11 09:09:03;;;;;;;0.52;0.52;;;;;;;;;;5081250;28;20034;-79
2023/10/11 09:11:30;;;;;;;0.52;0.52;;;;;;;;;;5080983;28;20016;-81
2023/10/11 09:14:22;;;;;;;0.50;0.50;;;;;;;;;;5099804;28;20149;-81
2023/10/11 09:16:57;;;;;;;0.43;0.43;;;;;;;;;;5079901;28;20035;-81
2023/10/11 09:19:23;;;;;;;0.50;0.50;;;;;;;;;;5080923;28;20035;-83
2023/10/11 09:22:05;;;;;;;0.50;0.50;;;;;;;;;;5082284;28;20024;-83
2023/10/11 09:24:41;;;;;;;0.50;0.50;;;;;;;;;;5082246;28;20020;-81
2023/10/11 09:29:43;;;;;;;0.50;0.50;;;;;;;;;;5100916;28;20044;-82
2023/10/11 09:32:09;;;;;;;0.50;0.50;;;;;;;;;;5083959;28;20028;-80
2023/10/11 09:34:41;;;;;;;0.50;0.50;;;;;;;;;;5082487;28;20024;-82
2023/10/11 09:37:11;;;;;;;0.50;0.50;;;;;;;;;;5082655;28;20060;-82
2023/10/11 09:39:44;;;;;;;0.50;0.50;;;;;;;;;;5086116;28;20099;-82
2023/10/11 09:42:11;;;;;;;0.50;0.50;;;;;;;;;;5082070;28;20053;-80
2023/10/11 09:44:39;;;;;;;0.50;0.50;;;;;;;;;;5073233;28;20024;-80
2023/10/11 09:47:06;;;;;;;0.50;0.50;;;;;;;;;;5067658;28;20028;-82
2023/10/11 09:49:41;;;;;;;0.40;0.40;;;;;;;;;;5068805;28;20021;-81
2023/10/11 09:52:11;;;;;;;0.50;0.50;;;;;;;;;;5065359;28;20029;-80
2023/10/11 09:54:39;;;;;;;0.43;0.43;;;;;;;;;;5068049;28;20025;-83
2023/10/11 09:57:21;;;;;;;0.50;0.50;;;;;;;;;;5073427;28;20022;-84
2023/10/11 10:00:11;;;;;;;0.50;0.50;;;;;;;;;;5075324;28;20145;-82
2023/10/11 10:02:39;;;;;;;0.50;0.50;;;;;;;;;;5061656;28;20037;-84
2023/10/11 10:05:07;;;;;;;0.40;0.40;;;;;;;;;;5064263;28;20029;-83
2023/10/11 10:10:08;;;;;;;0.40;0.40;;;;;;;;;;5029536;28;20528;-80
2023/10/11 10:12:44;;;;;;;0.50;0.50;;;;;;;;;;5034193;28;20041;-82
2023/10/11 10:15:15;;;;;;;0.50;0.50;;;;;;;;;;5036034;28;20021;-84
2023/10/11 10:17:56;;;;;;;0.40;0.40;;;;;;;;;;5036059;28;20098;-84
2023/10/11 10:20:43;;;;;;;0.50;0.50;;;;;;;;;;5038028;28;20048;-84
2023/10/11 10:23:20;;;;;;;0.50;0.50;;;;;;;;;;5038590;28;20020;-82
2023/10/11 10:26:15;;;;;;;0.40;0.40;;;;;;;;;;5035549;28;20044;-85
2023/10/11 10:28:47;;;;;;;0.40;0.40;;;;;;;;;;5042106;28;20497;-84
2023/10/11 10:31:21;;;;;;;0.30;0.30;;;;;;;;;;5035992;28;20132;-80
2023/10/11 10:34:05;;;;;;;0.60;0.60;;;;;;;;;;5032439;28;20041;-80
2023/10/11 10:36:31;;;;;;;0.40;0.40;;;;;;;;;;5026971;28;20029;-79
2023/10/11 10:39:33;;;;;;;0.47;0.47;;;;;;;;;;5024538;28;20496;-79
2023/10/11 10:42:12;;;;;;;0.57;0.57;;;;;;;;;;5042029;28;20428;-81
2023/10/11 10:44:53;;;;;;;0.50;0.50;;;;;;;;;;5032047;28;20075;-82
2023/10/11 10:47:23;;;;;;;0.40;0.40;;;;;;;;;;5060040;28;20055;-83
2023/10/11 10:49:51;;;;;;;0.40;0.40;;;;;;;;;;5056958;28;20502;-85
2023/10/11 10:52:30;;;;;;;0.40;0.40;;;;;;;;;;5060964;28;20357;-82
2023/10/11 10:55:04;;;;;;;0.40;0.40;;;;;;;;;;5056300;28;20032;-86
2023/10/11 10:57:36;;;;;;;0.50;0.50;;;;;;;;;;5055375;28;20025;-85
2023/10/11 11:00:32;;;;;;;0.40;0.40;;;;;;;;;;5055464;28;20020;-86
2023/10/11 11:03:00;;;;;;;0.40;0.40;;;;;;;;;;5055918;28;20057;-85
2023/10/11 11:05:29;;;;;;;0.45;0.45;;;;;;;;;;5073177;28;20032;-85
2023/10/11 11:08:15;;;;;;;0.55;0.55;;;;;;;;;;5063772;28;20027;-85
2023/10/11 11:10:54;;;;;;;0.40;0.40;;;;;;;;;;5064620;28;20024;-86
2023/10/11 11:13:21;;;;;;;0.38;0.38;;;;;;;;;;5059362;28;20040;-85
2023/10/11 11:15:55;;;;;;;0.40;0.40;;;;;;;;;;5045985;28;20043;-86
2023/10/11 11:18:31;;;;;;;1.45;1.02;;;;;;;;;;5064335;28;20021;-84
2023/10/11 11:20:59;;;;;;;0.40;0.40;;;;;;;;;;5059389;28;20048;-86
2023/10/11 11:23:27;;;;;;;0.40;0.40;;;;;;;;;;5075674;28;20115;-85
2023/10/11 11:25:53;;;;;;;0.40;0.40;;;;;;;;;;5068147;28;20104;-85
2023/10/11 11:28:24;;;;;;;0.40;0.40;;;;;;;;;;5066537;28;20025;-85
2023/10/11 11:31:11;;;;;;;0.40;0.40;;;;;;;;;;5062672;28;20023;-85
2023/10/11 11:33:47;;;;;;;0.40;0.40;;;;;;;;;;5060063;28;20024;-86
2023/10/11 11:36:40;;;;;;;0.30;0.30;;;;;;;;;;5064779;28;20476;-83
2023/10/11 11:39:17;;;;;;;0.45;0.45;;;;;;;;;;5071645;28;20472;-84
2023/10/11 11:41:53;;;;;;;0.30;0.30;;;;;;;;;;5062281;28;20111;-86
2023/10/11 11:44:27;;;;;;;0.30;0.30;;;;;;;;;;5067127;28;20025;-84
2023/10/11 11:46:54;;;;;;;0.30;0.30;;;;;;;;;;5073467;28;20028;-83
2023/10/11 11:49:24;;;;;;;0.30;0.30;;;;;;;;;;5061114;28;20483;-84
2023/10/11 11:51:51;;;;;;;0.30;0.30;;;;;;;;;;5071082;28;20021;-84
2023/10/11 11:54:28;;;;;;;0.30;0.30;;;;;;;;;;5067673;28;20038;-84
2023/10/11 11:56:54;;;;;;;0.30;0.30;;;;;;;;;;5062000;28;20031;-83
2023/10/11 11:59:24;;;;;;;0.30;0.30;;;;;;;;;;5073937;28;20020;-84
2023/10/11 12:01:56;;;;;;;0.28;0.28;;;;;;;;;;5064564;28;20020;-87
2023/10/11 12:04:32;;;;;;;0.30;0.30;;;;;;;;;;5065880;28;20038;-84
2023/10/11 12:06:59;;;;;;;0.30;0.30;;;;;;;;;;5074113;28;20091;-84
2023/10/11 12:09:31;;;;;;;0.30;0.30;;;;;;;;;;5060552;28;20016;-86
2023/10/11 12:12:05;;;;;;;0.30;0.30;;;;;;;;;;5070113;28;20024;-84
2023/10/11 12:14:37;;;;;;;0.30;0.30;;;;;;;;;;5074551;28;20027;-82
2023/10/11 12:17:09;;;;;;;0.30;0.30;;;;;;;;;;5086636;28;20459;-83
2023/10/11 12:19:41;;;;;;;0.30;0.30;;;;;;;;;;5092351;28;20019;-81
2023/10/11 12:22:07;;;;;;;0.20;0.20;;;;;;;;;;5077511;28;20112;-82
2023/10/11 12:24:34;;;;;;;0.20;0.20;;;;;;;;;;5078798;28;20034;-82
2023/10/11 12:27:00;;;;;;;0.28;0.28;;;;;;;;;;5069524;28;20055;-81
2023/10/11 12:29:27;;;;;;;0.30;0.30;;;;;;;;;;5082141;28;20133;-80
2023/10/11 12:31:56;;;;;;;0.20;0.20;;;;;;;;;;5073660;28;20062;-81
2023/10/11 12:34:25;;;;;;;0.30;0.30;;;;;;;;;;5069918;28;20020;-84
2023/10/11 12:36:53;;;;;;;0.30;0.30;;;;;;;;;;5077698;28;20055;-82
2023/10/11 12:39:24;;;;;;;0.22;0.22;;;;;;;;;;5071685;28;20020;-82
2023/10/11 12:41:51;;;;;;;0.30;0.30;;;666.50;1792.00;;;;;;5069209;28;20048;-81
2023/10/11 12:44:18;;;;;;;0.30;0.30;;;691.20;1792.00;;;;;;5066069;28;20032;-81
2023/10/11 12:46:45;;;;;;;0.20;0.20;;;691.20;1766.40;;;;;;5061705;28;20055;-81
2023/10/11 12:49:13;;;;;;;0.30;0.30;;;666.30;1740.80;;;;;;5072313;28;20028;-81
2023/10/11 12:51:42;;;;;;;0.30;0.30;;;666.10;1740.80;;;;;;5060156;28;20031;-82
2023/10/11 12:54:20;;;;;;;0.30;0.30;;;666.20;1766.40;;;;;;5065755;28;20052;-81
2023/10/11 12:56:46;;;;;;;0.30;0.30;;;666.30;1766.40;;;;;;5069420;28;20028;-81
2023/10/11 12:59:16;;;;;;;0.22;0.22;;;666.20;1766.40;;;;;;5058184;28;20112;-81
2023/10/11 13:01:57;;;;;;;0.30;0.30;;;666.50;1792.00;;;;;;5070093;28;20029;-81
2023/10/11 13:04:34;;;;;;;0.30;0.30;;;666.50;1766.40;;;;;;5066561;28;20104;-82
2023/10/11 13:07:00;;;;;;;0.20;0.20;;;666.50;1766.40;;;;;;5076820;28;20036;-80
2023/10/11 13:09:30;;;;;;;0.20;0.20;;;666.50;1766.40;;;;;;5071526;28;20021;-80
2023/10/11 13:11:57;;;;;;;0.20;0.20;;;666.40;1817.60;;;;;;5062698;28;20454;-81
2023/10/11 13:14:24;;;;;;;0.20;0.20;;;666.50;1868.80;;;;;;5063511;28;20111;-80
2023/10/11 13:17:15;;;;;;;0.22;0.22;;;691.20;1792.00;;;;;;5070197;28;20036;-81
2023/10/11 13:19:43;;;;;;;0.20;0.20;;;666.40;1792.00;;;;;;5057312;28;20384;-81
2023/10/11 13:22:12;;;;;;;0.20;0.20;;;666.30;1817.60;;;;;;5064565;28;20034;-82
2023/10/11 13:24:38;;;;;;;0.30;0.30;;;666.30;1792.00;;;;;;5061750;28;20028;-80
2023/10/11 13:27:07;;;;;;;0.30;0.30;;;666.20;1792.00;;;;;;5071766;28;20502;-80
2023/10/11 13:29:33;;;;;;;0.30;0.30;;;666.30;1817.60;;;;;;5059789;28;20051;-81
2023/10/11 13:31:59;;;;;;;0.30;0.30;;;666.30;1792.00;;;;;;5067124;28;20028;-81
2023/10/11 13:34:29;;;;;;;0.30;0.30;;;666.40;1740.80;;;;;;5066888;28;20126;-81
2023/10/11 13:36:59;;;;;;;0.30;0.30;;;666.40;1792.00;;;;;;5059519;28;20032;-80
2023/10/11 13:39:25;;;;;;;0.30;0.30;;;666.00;1792.00;;;;;;5071958;28;20091;-79
2023/10/11 13:41:56;;;;;;;0.30;0.30;;;665.60;1817.60;;;;;;5061949;28;20048;-80
2023/10/11 13:44:25;;;;;;;0.30;0.30;;;665.70;1817.60;;;;;;5063661;28;20029;-80
2023/10/11 13:46:55;;;;;;;0.25;0.25;;;665.80;1843.20;;;;;;5073417;28;20039;-82
2023/10/11 13:49:25;;;;;;;0.30;0.30;;;665.80;1817.60;;;;;;5062785;28;20361;-81
2023/10/11 13:51:58;;;;;;;0.30;0.30;;;665.60;1792.00;;;;;;5072185;28;20059;-82
2023/10/11 13:54:36;;;;;;;0.30;0.30;;;640.40;1792.00;;;;;;5071060;28;20024;-81
2023/10/11 13:57:27;;;;;;;0.30;0.30;;;640.40;1792.00;;;;;;5071351;28;20539;-80
2023/10/11 13:59:53;;;;;;;0.20;0.20;;;640.20;1792.00;;;;;;5091376;28;20032;-81
2023/10/11 14:02:37;;;;;;;0.30;0.30;;;615.30;1817.60;;;;;;5061462;28;20027;-81
2023/10/11 14:07:49;;;;;;;0.30;0.30;;;615.20;1817.60;;;;;;5080971;28;20474;-82
2023/10/11 14:10:17;;;;;;;0.30;0.30;;;614.90;1843.20;;;;;;5069657;28;20021;-82
2023/10/11 14:12:46;;;;;;;0.30;0.30;;;614.70;1843.20;;;;;;5058461;28;20039;-82
2023/10/11 14:15:17;;;;;;;0.30;0.30;;;614.50;1868.80;;;;;;5059089;28;20040;-82
2023/10/11 14:17:49;;;;;;;0.30;0.30;;;614.40;1894.40;;;;;;5059212;28;20056;-82
2023/10/11 14:20:23;;;;;;;0.30;0.30;;;589.70;1894.40;;;;;;5058668;28;20033;-82
2023/10/11 14:22:53;;;;;;;0.30;0.30;;;589.70;1945.60;;;;;;5063862;28;20031;-83
2023/10/11 14:25:19;;;;;;;0.30;0.30;;;589.70;1945.60;;;;;;5079377;28;20081;-85
2023/10/11 14:27:48;;;;;;;0.30;0.30;;;589.70;1920.00;;;;;;5079063;28;20028;-83
2023/10/11 14:30:15;;;;;;;0.30;0.30;;;589.70;1920.00;;;;;;5079840;28;20085;-84
2023/10/11 14:32:45;;;;;;;0.30;0.30;;;589.70;1920.00;;;;;;5079656;28;20028;-83
2023/10/11 14:35:12;;;;;;;0.30;0.30;;;589.70;1894.40;;;;;;5080147;28;20055;-83
2023/10/11 14:37:41;;;;;;;0.30;0.30;;;589.70;1894.40;;;;;;5079470;28;20020;-84
2023/10/11 14:40:15;;;;;;;0.30;0.30;;;589.70;1894.40;;;;;;5079188;28;20024;-83
2023/10/11 14:42:42;;;;;;;0.30;0.30;;;589.70;1920.00;;;;;;5097502;28;20148;-83
2023/10/11 14:45:11;;;;;;;0.30;0.30;;;589.60;1920.00;;;;;;5079288;28;20467;-84
2023/10/11 14:47:45;;;;;;;0.30;0.30;;;589.60;1894.40;;;;;;5079050;28;20031;-84
2023/10/11 14:50:12;;;;;;;0.30;0.30;;;589.60;1894.40;;;;;;5080643;28;20024;-84
2023/10/11 14:52:39;;;;;;;0.20;0.20;;;;;;;;;;5084330;28;20024;-83
2023/10/11 14:55:06;;;;;;;0.30;0.30;;;;;;;;;;5086606;28;20090;-84
2023/10/11 14:57:33;;;;;;;0.30;0.30;;;;;;;;;;5078030;28;20028;-84
2023/10/11 14:59:59;;;;;;;0.30;0.30;;;;;;;;;;5079306;28;20113;-83
2023/10/11 15:02:25;;;;;;;0.30;0.30;;;;;;;;;;5067946;28;20386;-84
2023/10/11 15:04:56;;;;;;;0.30;0.30;;;;;;;;;;5060238;28;20029;-83
2023/10/11 15:07:23;;;;;;;0.30;0.30;;;589.10;2022.40;;;;;;5058791;28;20074;-83
2023/10/11 15:09:49;;;;;;;0.30;0.30;;;588.90;1996.80;;;;;;5073993;28;20024;-84
2023/10/11 15:12:15;;;;;;;0.30;0.30;;;;;;;;;;5089016;28;20039;-83
2023/10/11 15:14:42;;;;;;;0.30;0.30;;;;;;;;;;5095520;28;20020;-84